South Gifford, Missouri
Current Conditions -  °F | °C
As of 10:55 PM on Wednesday 17 Dec 2014 (Local Time) from KIRK Reporting Station
Overcast Overcast  
Wind Chill: 27°   Ceiling: 9000
Heat Index: 27°   Visibility: 10mi
Dew Point: 22°   Wind: 3mph
Humidity: 81%   Direction: 70°ENE
Pressure: 30.29"   Gusts: NA
Location:  40.0105°N, 92.5282°W
Report Text: KIRK 180455Z AUTO 07003KT 10SM OVC090 M03/M06 A3029 RMK AO2 SLP272 T10281056
Loading
Personal Weather Stations






























Interactive Weather Map New forecast layout! Learn more

10-Day Weather Forecast

Advertisements
Track Severe Weather on mobile